sensor_id;sensor_type;location;lat;lon;timestamp;pressure;altitude;pressure_sealevel;temperature
27826;BMP280;15077;49.704;9.908;2024-01-30T00:01:55;99510.91;;;6.72
27826;BMP280;15077;49.704;9.908;2024-01-30T00:04:21;99512.56;;;6.70
27826;BMP280;15077;49.704;9.908;2024-01-30T00:06:47;99510.03;;;6.68
27826;BMP280;15077;49.704;9.908;2024-01-30T00:09:13;99504.19;;;6.66
27826;BMP280;15077;49.704;9.908;2024-01-30T00:11:40;99505.88;;;6.66
27826;BMP280;15077;49.704;9.908;2024-01-30T00:14:06;99500.84;;;6.66
27826;BMP280;15077;49.704;9.908;2024-01-30T00:16:32;99506.72;;;6.65
27826;BMP280;15077;49.704;9.908;2024-01-30T00:18:58;99497.47;;;6.64
27826;BMP280;15077;49.704;9.908;2024-01-30T00:21:23;99510.91;;;6.63
27826;BMP280;15077;49.704;9.908;2024-01-30T00:23:49;99507.53;;;6.62
27826;BMP280;15077;49.704;9.908;2024-01-30T00:26:15;99501.69;;;6.62
27826;BMP280;15077;49.704;9.908;2024-01-30T00:28:42;99505.03;;;6.62
27826;BMP280;15077;49.704;9.908;2024-01-30T00:31:08;99506.72;;;6.60
27826;BMP280;15077;49.704;9.908;2024-01-30T00:33:41;99507.56;;;6.58
27826;BMP280;15077;49.704;9.908;2024-01-30T00:36:08;99505.91;;;6.54
27826;BMP280;15077;49.704;9.908;2024-01-30T00:38:35;99505.91;;;6.52
27826;BMP280;15077;49.704;9.908;2024-01-30T00:41:01;99505.06;;;6.52
27826;BMP280;15077;49.704;9.908;2024-01-30T00:43:30;99507.56;;;6.50
27826;BMP280;15077;49.704;9.908;2024-01-30T00:45:56;99497.50;;;6.49
27826;BMP280;15077;49.704;9.908;2024-01-30T00:48:23;99500.88;;;6.48
27826;BMP280;15077;49.704;9.908;2024-01-30T00:50:49;99507.59;;;6.46
27826;BMP280;15077;49.704;9.908;2024-01-30T00:53:15;99505.06;;;6.44
27826;BMP280;15077;49.704;9.908;2024-01-30T00:55:41;99502.56;;;6.43
27826;BMP280;15077;49.704;9.908;2024-01-30T00:58:07;99495.81;;;6.43
27826;BMP280;15077;49.704;9.908;2024-01-30T01:00:32;99501.72;;;6.42
27826;BMP280;15077;49.704;9.908;2024-01-30T01:02:58;99504.25;;;6.41
27826;BMP280;15077;49.704;9.908;2024-01-30T01:05:25;99500.88;;;6.39
27826;BMP280;15077;49.704;9.908;2024-01-30T01:07:51;99496.69;;;6.38
27826;BMP280;15077;49.704;9.908;2024-01-30T01:10:17;99498.38;;;6.36
27826;BMP280;15077;49.704;9.908;2024-01-30T01:12:44;99503.41;;;6.36
27826;BMP280;15077;49.704;9.908;2024-01-30T01:15:10;99499.22;;;6.35
27826;BMP280;15077;49.704;9.908;2024-01-30T01:17:36;99503.41;;;6.33
27826;BMP280;15077;49.704;9.908;2024-01-30T01:20:03;99504.28;;;6.32
27826;BMP280;15077;49.704;9.908;2024-01-30T01:22:29;99504.28;;;6.32
27826;BMP280;15077;49.704;9.908;2024-01-30T01:24:55;99505.09;;;6.31
27826;BMP280;15077;49.704;9.908;2024-01-30T01:27:21;99505.94;;;6.30
27826;BMP280;15077;49.704;9.908;2024-01-30T01:29:46;99500.06;;;6.28
27826;BMP280;15077;49.704;9.908;2024-01-30T01:32:12;99505.13;;;6.27
27826;BMP280;15077;49.704;9.908;2024-01-30T01:34:37;99505.13;;;6.25
27826;BMP280;15077;49.704;9.908;2024-01-30T01:37:04;99507.63;;;6.25
27826;BMP280;15077;49.704;9.908;2024-01-30T01:39:29;99501.78;;;6.25
27826;BMP280;15077;49.704;9.908;2024-01-30T01:41:55;99501.78;;;6.25
27826;BMP280;15077;49.704;9.908;2024-01-30T01:44:20;99510.16;;;6.21
27826;BMP280;15077;49.704;9.908;2024-01-30T01:46:47;99499.25;;;6.19
27826;BMP280;15077;49.704;9.908;2024-01-30T01:49:13;99499.25;;;6.17
27826;BMP280;15077;49.704;9.908;2024-01-30T01:51:39;99495.06;;;6.16
27826;BMP280;15077;49.704;9.908;2024-01-30T01:54:06;99511.00;;;6.15
27826;BMP280;15077;49.704;9.908;2024-01-30T01:56:33;99497.56;;;6.13
27826;BMP280;15077;49.704;9.908;2024-01-30T01:59:04;99499.28;;;6.14
27826;BMP280;15077;49.704;9.908;2024-01-30T02:01:32;99495.06;;;6.13
27826;BMP280;15077;49.704;9.908;2024-01-30T02:04:01;99492.53;;;6.13
27826;BMP280;15077;49.704;9.908;2024-01-30T02:06:27;99485.81;;;6.12
27826;BMP280;15077;49.704;9.908;2024-01-30T02:08:56;99495.91;;;6.12
27826;BMP280;15077;49.704;9.908;2024-01-30T02:11:22;99498.41;;;6.14
27826;BMP280;15077;49.704;9.908;2024-01-30T02:13:50;99501.78;;;6.11
27826;BMP280;15077;49.704;9.908;2024-01-30T02:16:16;99495.91;;;6.12
27826;BMP280;15077;49.704;9.908;2024-01-30T02:18:43;99492.53;;;6.13
27826;BMP280;15077;49.704;9.908;2024-01-30T02:21:09;99492.56;;;6.10
27826;BMP280;15077;49.704;9.908;2024-01-30T02:23:34;99489.19;;;6.11
27826;BMP280;15077;49.704;9.908;2024-01-30T02:26:00;99488.34;;;6.11
27826;BMP280;15077;49.704;9.908;2024-01-30T02:28:26;99484.16;;;6.11
27826;BMP280;15077;49.704;9.908;2024-01-30T02:30:52;99486.69;;;6.11
27826;BMP280;15077;49.704;9.908;2024-01-30T02:33:18;99479.13;;;6.11
27826;BMP280;15077;49.704;9.908;2024-01-30T02:35:44;99480.78;;;6.11
27826;BMP280;15077;49.704;9.908;2024-01-30T02:38:10;99477.44;;;6.10
27826;BMP280;15077;49.704;9.908;2024-01-30T02:40:35;99481.66;;;6.11
27826;BMP280;15077;49.704;9.908;2024-01-30T02:43:02;99479.13;;;6.11
27826;BMP280;15077;49.704;9.908;2024-01-30T02:45:28;99480.78;;;6.11
27826;BMP280;15077;49.704;9.908;2024-01-30T02:47:54;99477.44;;;6.10
27826;BMP280;15077;49.704;9.908;2024-01-30T02:50:20;99478.28;;;6.11
27826;BMP280;15077;49.704;9.908;2024-01-30T02:52:46;99473.25;;;6.09
27826;BMP280;15077;49.704;9.908;2024-01-30T02:55:12;99471.59;;;6.07
27826;BMP280;15077;49.704;9.908;2024-01-30T02:57:38;99472.41;;;6.04
27826;BMP280;15077;49.704;9.908;2024-01-30T03:00:05;99480.81;;;6.03
27826;BMP280;15077;49.704;9.908;2024-01-30T03:02:35;99479.16;;;6.04
27826;BMP280;15077;49.704;9.908;2024-01-30T03:05:01;99472.41;;;6.04
27826;BMP280;15077;49.704;9.908;2024-01-30T03:07:26;99472.41;;;6.04
27826;BMP280;15077;49.704;9.908;2024-01-30T03:09:52;99465.69;;;6.03
27826;BMP280;15077;49.704;9.908;2024-01-30T03:12:18;99474.13;;;6.02
27826;BMP280;15077;49.704;9.908;2024-01-30T03:14:43;99477.47;;;6.01
27826;BMP280;15077;49.704;9.908;2024-01-30T03:17:09;99474.94;;;6.03
27826;BMP280;15077;49.704;9.908;2024-01-30T03:19:34;99475.75;;;6.03
27826;BMP280;15077;49.704;9.908;2024-01-30T03:22:00;99464.88;;;6.03
27826;BMP280;15077;49.704;9.908;2024-01-30T03:24:26;99465.69;;;6.00
27826;BMP280;15077;49.704;9.908;2024-01-30T03:26:52;99465.69;;;6.00
27826;BMP280;15077;49.704;9.908;2024-01-30T03:29:17;99467.41;;;5.98
27826;BMP280;15077;49.704;9.908;2024-01-30T03:31:43;99472.44;;;5.98
27826;BMP280;15077;49.704;9.908;2024-01-30T03:34:08;99472.44;;;5.98
27826;BMP280;15077;49.704;9.908;2024-01-30T03:36:34;99464.03;;;5.98
27826;BMP280;15077;49.704;9.908;2024-01-30T03:39:00;99466.53;;;5.98
27826;BMP280;15077;49.704;9.908;2024-01-30T03:41:26;99468.22;;;5.97
27826;BMP280;15077;49.704;9.908;2024-01-30T03:43:52;99468.22;;;5.97
27826;BMP280;15077;49.704;9.908;2024-01-30T03:46:18;99475.78;;;5.96
27826;BMP280;15077;49.704;9.908;2024-01-30T03:48:45;99469.06;;;5.93
27826;BMP280;15077;49.704;9.908;2024-01-30T03:51:10;99470.75;;;5.91
27826;BMP280;15077;49.704;9.908;2024-01-30T03:53:40;99465.72;;;5.91
27826;BMP280;15077;49.704;9.908;2024-01-30T03:56:07;99468.22;;;5.91
27826;BMP280;15077;49.704;9.908;2024-01-30T03:58:33;99466.53;;;5.90
27826;BMP280;15077;49.704;9.908;2024-01-30T04:00:59;99468.22;;;5.90
27826;BMP280;15077;49.704;9.908;2024-01-30T04:03:24;99472.44;;;5.89
27826;BMP280;15077;49.704;9.908;2024-01-30T04:05:53;99470.75;;;5.88
27826;BMP280;15077;49.704;9.908;2024-01-30T04:08:19;99475.78;;;5.85
27826;BMP280;15077;49.704;9.908;2024-01-30T04:10:46;99478.31;;;5.85
27826;BMP280;15077;49.704;9.908;2024-01-30T04:13:14;99474.09;;;5.84
27826;BMP280;15077;49.704;9.908;2024-01-30T04:15:39;99474.97;;;5.83
27826;BMP280;15077;49.704;9.908;2024-01-30T04:18:05;99473.28;;;5.82
27826;BMP280;15077;49.704;9.908;2024-01-30T04:20:31;99475.78;;;5.82
27826;BMP280;15077;49.704;9.908;2024-01-30T04:22:56;99485.84;;;5.82
27826;BMP280;15077;49.704;9.908;2024-01-30T04:25:22;99475.78;;;5.82
27826;BMP280;15077;49.704;9.908;2024-01-30T04:27:48;99484.16;;;5.81
27826;BMP280;15077;49.704;9.908;2024-01-30T04:30:14;99485.03;;;5.80
27826;BMP280;15077;49.704;9.908;2024-01-30T04:32:40;99484.16;;;5.81
27826;BMP280;15077;49.704;9.908;2024-01-30T04:35:07;99476.63;;;5.81
27826;BMP280;15077;49.704;9.908;2024-01-30T04:37:32;99485.84;;;5.81
27826;BMP280;15077;49.704;9.908;2024-01-30T04:39:58;99482.50;;;5.80
27826;BMP280;15077;49.704;9.908;2024-01-30T04:42:24;99479.13;;;5.78
27826;BMP280;15077;49.704;9.908;2024-01-30T04:44:50;99474.97;;;5.76
27826;BMP280;15077;49.704;9.908;2024-01-30T04:47:16;99474.09;;;5.76
27826;BMP280;15077;49.704;9.908;2024-01-30T04:49:41;99474.09;;;5.76
27826;BMP280;15077;49.704;9.908;2024-01-30T04:52:08;99476.63;;;5.74
27826;BMP280;15077;49.704;9.908;2024-01-30T04:54:34;99470.72;;;5.74
27826;BMP280;15077;49.704;9.908;2024-01-30T04:57:01;99468.22;;;5.72
27826;BMP280;15077;49.704;9.908;2024-01-30T04:59:27;99470.72;;;5.71
27826;BMP280;15077;49.704;9.908;2024-01-30T05:01:53;99474.06;;;5.71
27826;BMP280;15077;49.704;9.908;2024-01-30T05:04:18;99469.91;;;5.70
27826;BMP280;15077;49.704;9.908;2024-01-30T05:06:44;99468.22;;;5.69
27826;BMP280;15077;49.704;9.908;2024-01-30T05:09:10;99473.25;;;5.69
27826;BMP280;15077;49.704;9.908;2024-01-30T05:11:40;99477.44;;;5.69
27826;BMP280;15077;49.704;9.908;2024-01-30T05:14:07;99469.91;;;5.67
27826;BMP280;15077;49.704;9.908;2024-01-30T05:16:33;99475.75;;;5.68
27826;BMP280;15077;49.704;9.908;2024-01-30T05:18:59;99469.91;;;5.67
27826;BMP280;15077;49.704;9.908;2024-01-30T05:21:24;99479.09;;;5.67
27826;BMP280;15077;49.704;9.908;2024-01-30T05:23:50;99474.94;;;5.64
27826;BMP280;15077;49.704;9.908;2024-01-30T05:26:16;99475.75;;;5.62
27826;BMP280;15077;49.704;9.908;2024-01-30T05:28:42;99475.75;;;5.59
27826;BMP280;15077;49.704;9.908;2024-01-30T05:31:10;99475.75;;;5.59
27826;BMP280;15077;49.704;9.908;2024-01-30T05:33:35;99474.94;;;5.57
27826;BMP280;15077;49.704;9.908;2024-01-30T05:36:01;99477.44;;;5.57
27826;BMP280;15077;49.704;9.908;2024-01-30T05:38:27;99478.28;;;5.57
27826;BMP280;15077;49.704;9.908;2024-01-30T05:40:52;99479.09;;;5.58
27826;BMP280;15077;49.704;9.908;2024-01-30T05:43:19;99472.41;;;5.57
27826;BMP280;15077;49.704;9.908;2024-01-30T05:45:44;99479.09;;;5.58
27826;BMP280;15077;49.704;9.908;2024-01-30T05:48:10;99484.13;;;5.58
27826;BMP280;15077;49.704;9.908;2024-01-30T05:50:36;99484.97;;;5.58
27826;BMP280;15077;49.704;9.908;2024-01-30T05:53:01;99480.78;;;5.57
27826;BMP280;15077;49.704;9.908;2024-01-30T05:55:27;99482.47;;;5.57
27826;BMP280;15077;49.704;9.908;2024-01-30T05:57:52;99486.63;;;5.56
27826;BMP280;15077;49.704;9.908;2024-01-30T06:00:18;99488.31;;;5.56
27826;BMP280;15077;49.704;9.908;2024-01-30T06:02:44;99490.84;;;5.56
27826;BMP280;15077;49.704;9.908;2024-01-30T06:05:10;99490.00;;;5.55
27826;BMP280;15077;49.704;9.908;2024-01-30T06:07:35;99489.16;;;5.55
27826;BMP280;15077;49.704;9.908;2024-01-30T06:10:01;99489.16;;;5.55
27826;BMP280;15077;49.704;9.908;2024-01-30T06:12:27;99504.25;;;5.55
27826;BMP280;15077;49.704;9.908;2024-01-30T06:14:54;99499.22;;;5.55
27826;BMP280;15077;49.704;9.908;2024-01-30T06:17:23;99502.59;;;5.54
27826;BMP280;15077;49.704;9.908;2024-01-30T06:19:49;99501.72;;;5.55
27826;BMP280;15077;49.704;9.908;2024-01-30T06:22:15;99502.59;;;5.54
27826;BMP280;15077;49.704;9.908;2024-01-30T06:24:41;99497.56;;;5.54
27826;BMP280;15077;49.704;9.908;2024-01-30T06:27:07;99496.69;;;5.50
27826;BMP280;15077;49.704;9.908;2024-01-30T06:29:32;99499.19;;;5.47
27826;BMP280;15077;49.704;9.908;2024-01-30T06:31:58;99489.97;;;5.46
27826;BMP280;15077;49.704;9.908;2024-01-30T06:34:24;99499.19;;;5.46
27826;BMP280;15077;49.704;9.908;2024-01-30T06:36:51;99500.03;;;5.45
27826;BMP280;15077;49.704;9.908;2024-01-30T06:39:17;99495.00;;;5.42
27826;BMP280;15077;49.704;9.908;2024-01-30T06:41:43;99499.19;;;5.40
27826;BMP280;15077;49.704;9.908;2024-01-30T06:44:09;99497.50;;;5.39
27826;BMP280;15077;49.704;9.908;2024-01-30T06:46:35;99509.25;;;5.38
27826;BMP280;15077;49.704;9.908;2024-01-30T06:49:00;99497.50;;;5.39
27826;BMP280;15077;49.704;9.908;2024-01-30T06:51:26;99500.88;;;5.38
27826;BMP280;15077;49.704;9.908;2024-01-30T06:53:52;99501.72;;;5.38
27826;BMP280;15077;49.704;9.908;2024-01-30T06:56:18;99489.97;;;5.37
27826;BMP280;15077;49.704;9.908;2024-01-30T06:58:48;99495.84;;;5.38
27826;BMP280;15077;49.704;9.908;2024-01-30T07:01:14;99500.88;;;5.38
27826;BMP280;15077;49.704;9.908;2024-01-30T07:03:40;99495.84;;;5.38
27826;BMP280;15077;49.704;9.908;2024-01-30T07:06:05;99504.22;;;5.37
27826;BMP280;15077;49.704;9.908;2024-01-30T07:08:31;99500.88;;;5.38
27826;BMP280;15077;49.704;9.908;2024-01-30T07:10:57;99502.53;;;5.37
27826;BMP280;15077;49.704;9.908;2024-01-30T07:13:22;99510.06;;;5.37
27826;BMP280;15077;49.704;9.908;2024-01-30T07:15:48;99505.91;;;5.38
27826;BMP280;15077;49.704;9.908;2024-01-30T07:18:14;99509.25;;;5.37
27826;BMP280;15077;49.704;9.908;2024-01-30T07:20:39;99509.25;;;5.37
27826;BMP280;15077;49.704;9.908;2024-01-30T07:23:12;99509.25;;;5.37
27826;BMP280;15077;49.704;9.908;2024-01-30T07:25:40;99508.41;;;5.36
27826;BMP280;15077;49.704;9.908;2024-01-30T07:28:07;99510.94;;;5.36
27826;BMP280;15077;49.704;9.908;2024-01-30T07:30:34;99507.56;;;5.37
27826;BMP280;15077;49.704;9.908;2024-01-30T07:33:00;99507.56;;;5.37
27826;BMP280;15077;49.704;9.908;2024-01-30T07:35:26;99506.72;;;5.38
27826;BMP280;15077;49.704;9.908;2024-01-30T07:37:51;99509.25;;;5.38
27826;BMP280;15077;49.704;9.908;2024-01-30T07:40:17;99517.63;;;5.39
27826;BMP280;15077;49.704;9.908;2024-01-30T07:42:43;99526.84;;;5.40
27826;BMP280;15077;49.704;9.908;2024-01-30T07:45:09;99512.59;;;5.40
27826;BMP280;15077;49.704;9.908;2024-01-30T07:47:34;99518.47;;;5.41
27826;BMP280;15077;49.704;9.908;2024-01-30T07:50:00;99521.00;;;5.41
27826;BMP280;15077;49.704;9.908;2024-01-30T07:52:26;99521.84;;;5.43
27826;BMP280;15077;49.704;9.908;2024-01-30T07:54:51;99524.34;;;5.43
27826;BMP280;15077;49.704;9.908;2024-01-30T07:57:17;99526.03;;;5.44
27826;BMP280;15077;49.704;9.908;2024-01-30T07:59:43;99532.72;;;5.45
27826;BMP280;15077;49.704;9.908;2024-01-30T08:02:11;99530.22;;;5.45
27826;BMP280;15077;49.704;9.908;2024-01-30T08:04:37;99531.06;;;5.47
27826;BMP280;15077;49.704;9.908;2024-01-30T08:07:03;99533.59;;;5.48
27826;BMP280;15077;49.704;9.908;2024-01-30T08:09:28;99532.72;;;5.48
27826;BMP280;15077;49.704;9.908;2024-01-30T08:11:54;99533.59;;;5.50
27826;BMP280;15077;49.704;9.908;2024-01-30T08:14:20;99532.72;;;5.51
27826;BMP280;15077;49.704;9.908;2024-01-30T08:16:45;99537.81;;;5.54
27826;BMP280;15077;49.704;9.908;2024-01-30T08:19:11;99532.78;;;5.55
27826;BMP280;15077;49.704;9.908;2024-01-30T08:21:37;99535.28;;;5.57
27826;BMP280;15077;49.704;9.908;2024-01-30T08:24:03;99536.13;;;5.59
27826;BMP280;15077;49.704;9.908;2024-01-30T08:26:30;99531.09;;;5.62
27826;BMP280;15077;49.704;9.908;2024-01-30T08:28:56;99534.44;;;5.64
27826;BMP280;15077;49.704;9.908;2024-01-30T08:31:21;99531.09;;;5.66
27826;BMP280;15077;49.704;9.908;2024-01-30T08:33:47;99532.78;;;5.69
27826;BMP280;15077;49.704;9.908;2024-01-30T08:36:13;99529.41;;;5.71
27826;BMP280;15077;49.704;9.908;2024-01-30T08:38:38;99526.06;;;5.74
27826;BMP280;15077;49.704;9.908;2024-01-30T08:41:04;99519.38;;;5.76
27826;BMP280;15077;49.704;9.908;2024-01-30T08:43:30;99525.28;;;5.80
27826;BMP280;15077;49.704;9.908;2024-01-30T08:45:59;99523.59;;;5.84
27826;BMP280;15077;49.704;9.908;2024-01-30T08:48:25;99526.94;;;5.87
27826;BMP280;15077;49.704;9.908;2024-01-30T08:50:51;99526.13;;;5.93
27826;BMP280;15077;49.704;9.908;2024-01-30T08:53:16;99523.59;;;5.97
27826;BMP280;15077;49.704;9.908;2024-01-30T08:55:42;99526.09;;;6.03
27826;BMP280;15077;49.704;9.908;2024-01-30T08:58:08;99526.09;;;6.09
27826;BMP280;15077;49.704;9.908;2024-01-30T09:00:33;99528.63;;;6.15
27826;BMP280;15077;49.704;9.908;2024-01-30T09:02:59;99524.44;;;6.20
27826;BMP280;15077;49.704;9.908;2024-01-30T09:05:24;99529.47;;;6.26
27826;BMP280;15077;49.704;9.908;2024-01-30T09:07:50;99527.75;;;6.32
27826;BMP280;15077;49.704;9.908;2024-01-30T09:10:16;99531.09;;;6.39
27826;BMP280;15077;49.704;9.908;2024-01-30T09:12:42;99526.09;;;6.46
27826;BMP280;15077;49.704;9.908;2024-01-30T09:15:08;99531.94;;;6.54
27826;BMP280;15077;49.704;9.908;2024-01-30T09:17:34;99536.13;;;6.63
27826;BMP280;15077;49.704;9.908;2024-01-30T09:19:59;99534.41;;;6.71
27826;BMP280;15077;49.704;9.908;2024-01-30T09:22:25;99540.25;;;6.80
27826;BMP280;15077;49.704;9.908;2024-01-30T09:24:51;99531.81;;;6.88
27826;BMP280;15077;49.704;9.908;2024-01-30T09:27:16;99539.34;;;6.97
27826;BMP280;15077;49.704;9.908;2024-01-30T09:29:42;99529.25;;;7.03
27826;BMP280;15077;49.704;9.908;2024-01-30T09:32:08;99535.94;;;7.13
27826;BMP280;15077;49.704;9.908;2024-01-30T09:34:34;99537.56;;;7.23
27826;BMP280;15077;49.704;9.908;2024-01-30T09:37:00;99539.19;;;7.30
27826;BMP280;15077;49.704;9.908;2024-01-30T09:39:26;99546.75;;;7.37
27826;BMP280;15077;49.704;9.908;2024-01-30T09:44:41;99557.56;;;7.56
27826;BMP280;15077;49.704;9.908;2024-01-30T09:47:08;99544.91;;;7.63
27826;BMP280;15077;49.704;9.908;2024-01-30T09:49:35;99548.19;;;7.72
27826;BMP280;15077;49.704;9.908;2024-01-30T09:52:08;99554.06;;;7.80
27826;BMP280;15077;49.704;9.908;2024-01-30T09:54:34;99552.28;;;7.88
27826;BMP280;15077;49.704;9.908;2024-01-30T09:57:00;99553.91;;;7.98
27826;BMP280;15077;49.704;9.908;2024-01-30T09:59:26;99548.78;;;8.07
27826;BMP280;15077;49.704;9.908;2024-01-30T10:01:52;99561.38;;;8.16
27826;BMP280;15077;49.704;9.908;2024-01-30T10:04:19;99555.47;;;8.17
27826;BMP280;15077;49.704;9.908;2024-01-30T10:06:45;99555.47;;;8.17
27826;BMP280;15077;49.704;9.908;2024-01-30T10:11:39;99558.81;;;8.22
27826;BMP280;15077;49.704;9.908;2024-01-30T10:14:05;99554.56;;;8.25
27826;BMP280;15077;49.704;9.908;2024-01-30T10:16:31;99558.72;;;8.29
27826;BMP280;15077;49.704;9.908;2024-01-30T10:18:56;99552.81;;;8.33
27826;BMP280;15077;49.704;9.908;2024-01-30T10:21:23;99560.34;;;8.38
27826;BMP280;15077;49.704;9.908;2024-01-30T10:23:49;99556.97;;;8.42
27826;BMP280;15077;49.704;9.908;2024-01-30T10:26:16;99556.94;;;8.45
27826;BMP280;15077;49.704;9.908;2024-01-30T10:28:42;99551.81;;;8.49
27826;BMP280;15077;49.704;9.908;2024-01-30T10:31:08;99545.84;;;8.55
27826;BMP280;15077;49.704;9.908;2024-01-30T10:33:34;99546.66;;;8.60
27826;BMP280;15077;49.704;9.908;2024-01-30T10:36:04;99547.41;;;8.69
27826;BMP280;15077;49.704;9.908;2024-01-30T10:38:31;99533.88;;;8.74
27826;BMP280;15077;49.704;9.908;2024-01-30T10:40:57;99533.78;;;8.82
27826;BMP280;15077;49.704;9.908;2024-01-30T10:43:31;99531.16;;;8.89
27826;BMP280;15077;49.704;9.908;2024-01-30T10:46:00;99533.59;;;8.98
27826;BMP280;15077;49.704;9.908;2024-01-30T10:48:29;99535.16;;;9.10
27826;BMP280;15077;49.704;9.908;2024-01-30T10:50:58;99536.69;;;9.19
27826;BMP280;15077;49.704;9.908;2024-01-30T10:53:25;99534.94;;;9.24
27826;BMP280;15077;49.704;9.908;2024-01-30T10:55:51;99531.53;;;9.28
27826;BMP280;15077;49.704;9.908;2024-01-30T10:58:18;99523.03;;;9.31
27826;BMP280;15077;49.704;9.908;2024-01-30T11:00:44;99520.44;;;9.35
27826;BMP280;15077;49.704;9.908;2024-01-30T11:03:10;99522.94;;;9.38
27826;BMP280;15077;49.704;9.908;2024-01-30T11:05:40;99519.53;;;9.42
27826;BMP280;15077;49.704;9.908;2024-01-30T11:08:13;99525.28;;;9.52
27826;BMP280;15077;49.704;9.908;2024-01-30T11:10:46;99525.16;;;9.61
27826;BMP280;15077;49.704;9.908;2024-01-30T11:13:13;99519.13;;;9.69
27826;BMP280;15077;49.704;9.908;2024-01-30T11:15:40;99516.53;;;9.73
27826;BMP280;15077;49.704;9.908;2024-01-30T11:18:05;99511.38;;;9.79
27826;BMP280;15077;49.704;9.908;2024-01-30T11:20:31;99502.03;;;9.84
27826;BMP280;15077;49.704;9.908;2024-01-30T11:22:58;99502.78;;;9.89
27826;BMP280;15077;49.704;9.908;2024-01-30T11:25:25;99502.72;;;9.95
27826;BMP280;15077;49.704;9.908;2024-01-30T11:27:55;99503.44;;;10.02
27826;BMP280;15077;49.704;9.908;2024-01-30T11:30:30;99499.13;;;10.08
27826;BMP280;15077;49.704;9.908;2024-01-30T11:33:06;99485.50;;;10.15
27826;BMP280;15077;49.704;9.908;2024-01-30T11:35:44;99490.41;;;10.24
27826;BMP280;15077;49.704;9.908;2024-01-30T11:38:13;99492.84;;;10.30
27826;BMP280;15077;49.704;9.908;2024-01-30T11:40:40;99483.38;;;10.38
27826;BMP280;15077;49.704;9.908;2024-01-30T11:43:07;99482.34;;;10.48
27826;BMP280;15077;49.704;9.908;2024-01-30T11:45:35;99487.19;;;10.60
27826;BMP280;15077;49.704;9.908;2024-01-30T11:48:02;99482.78;;;10.69
27826;BMP280;15077;49.704;9.908;2024-01-30T11:50:33;99485.09;;;10.79
27826;BMP280;15077;49.704;9.908;2024-01-30T11:53:02;99480.66;;;10.90
27826;BMP280;15077;49.704;9.908;2024-01-30T11:55:30;99477.06;;;11.00
27826;BMP280;15077;49.704;9.908;2024-01-30T11:57:58;99478.53;;;11.10
27826;BMP280;15077;49.704;9.908;2024-01-30T12:00:24;99474.16;;;11.18
27826;BMP280;15077;49.704;9.908;2024-01-30T12:02:52;99478.19;;;11.26
27826;BMP280;15077;49.704;9.908;2024-01-30T12:05:21;99477.94;;;11.37
27826;BMP280;15077;49.704;9.908;2024-01-30T12:07:47;99473.56;;;11.45
27826;BMP280;15077;49.704;9.908;2024-01-30T12:10:13;99463.97;;;11.57
27826;BMP280;15077;49.704;9.908;2024-01-30T12:12:45;99464.59;;;11.68
27826;BMP280;15077;49.704;9.908;2024-01-30T12:15:12;99461.78;;;11.78
27826;BMP280;15077;49.704;9.908;2024-01-30T12:17:38;99467.44;;;11.89
27826;BMP280;15077;49.704;9.908;2024-01-30T12:22:37;99459.38;;;12.06
27826;BMP280;15077;49.704;9.908;2024-01-30T12:25:09;99458.38;;;12.12
27826;BMP280;15077;49.704;9.908;2024-01-30T12:27:36;99449.81;;;12.16
27826;BMP280;15077;49.704;9.908;2024-01-30T12:30:20;99442.84;;;12.23
27826;BMP280;15077;49.704;9.908;2024-01-30T12:32:47;99445.19;;;12.30
27826;BMP280;15077;49.704;9.908;2024-01-30T12:35:16;99442.44;;;12.38
27826;BMP280;15077;49.704;9.908;2024-01-30T12:37:46;99448.91;;;12.49
27826;BMP280;15077;49.704;9.908;2024-01-30T12:40:13;99446.91;;;12.60
27826;BMP280;15077;49.704;9.908;2024-01-30T12:42:43;99450.84;;;12.71
27826;BMP280;15077;49.704;9.908;2024-01-30T12:45:11;99441.13;;;12.85
27826;BMP280;15077;49.704;9.908;2024-01-30T12:47:38;99426.25;;;13.01
27826;BMP280;15077;49.704;9.908;2024-01-30T12:50:04;99436.81;;;13.16
27826;BMP280;15077;49.704;9.908;2024-01-30T12:52:30;99432.16;;;13.30
27826;BMP280;15077;49.704;9.908;2024-01-30T12:54:56;99430.91;;;13.43
27826;BMP280;15077;49.704;9.908;2024-01-30T12:57:21;99431.38;;;13.54
27826;BMP280;15077;49.704;9.908;2024-01-30T12:59:48;99426.78;;;13.64
27826;BMP280;15077;49.704;9.908;2024-01-30T13:02:15;99428.97;;;13.75
27826;BMP280;15077;49.704;9.908;2024-01-30T13:04:42;99430.50;;;13.80
27826;BMP280;15077;49.704;9.908;2024-01-30T13:07:08;99428.72;;;13.84
27826;BMP280;15077;49.704;9.908;2024-01-30T13:09:34;99430.31;;;13.86
27826;BMP280;15077;49.704;9.908;2024-01-30T13:11:59;99431.97;;;13.87
27826;BMP280;15077;49.704;9.908;2024-01-30T13:14:25;99420.13;;;13.86
27826;BMP280;15077;49.704;9.908;2024-01-30T13:16:51;99420.97;;;13.87
27826;BMP280;15077;49.704;9.908;2024-01-30T13:19:17;99424.44;;;13.84
27826;BMP280;15077;49.704;9.908;2024-01-30T13:21:43;99425.31;;;13.83
27826;BMP280;15077;49.704;9.908;2024-01-30T13:24:08;99422.81;;;13.82
27826;BMP280;15077;49.704;9.908;2024-01-30T13:26:35;99424.59;;;13.80
27826;BMP280;15077;49.704;9.908;2024-01-30T13:29:00;99414.50;;;13.77
27826;BMP280;15077;49.704;9.908;2024-01-30T13:31:26;99424.75;;;13.75
27826;BMP280;15077;49.704;9.908;2024-01-30T13:33:53;99421.38;;;13.73
27826;BMP280;15077;49.704;9.908;2024-01-30T13:36:19;99415.50;;;13.71
27826;BMP280;15077;49.704;9.908;2024-01-30T13:38:44;99419.03;;;13.67
27826;BMP280;15077;49.704;9.908;2024-01-30T13:41:10;99423.38;;;13.65
27826;BMP280;15077;49.704;9.908;2024-01-30T13:43:35;99417.44;;;13.65
27826;BMP280;15077;49.704;9.908;2024-01-30T13:46:01;99414.03;;;13.64
27826;BMP280;15077;49.704;9.908;2024-01-30T13:48:27;99412.41;;;13.63
27826;BMP280;15077;49.704;9.908;2024-01-30T13:50:53;99422.59;;;13.63
27826;BMP280;15077;49.704;9.908;2024-01-30T13:53:19;99414.09;;;13.63
27826;BMP280;15077;49.704;9.908;2024-01-30T13:55:45;99402.22;;;13.63
27826;BMP280;15077;49.704;9.908;2024-01-30T13:58:10;99408.94;;;13.64
27826;BMP280;15077;49.704;9.908;2024-01-30T14:00:36;99413.13;;;13.67
27826;BMP280;15077;49.704;9.908;2024-01-30T14:03:02;99406.25;;;13.69
27826;BMP280;15077;49.704;9.908;2024-01-30T14:05:28;99409.50;;;13.74
27826;BMP280;15077;49.704;9.908;2024-01-30T14:07:54;99414.56;;;13.75
27826;BMP280;15077;49.704;9.908;2024-01-30T14:10:20;99419.53;;;13.78
27826;BMP280;15077;49.704;9.908;2024-01-30T14:12:46;99419.50;;;13.80
27826;BMP280;15077;49.704;9.908;2024-01-30T14:15:14;99431.31;;;13.82
27826;BMP280;15077;49.704;9.908;2024-01-30T14:17:40;99426.13;;;13.85
27826;BMP280;15077;49.704;9.908;2024-01-30T14:20:06;99429.44;;;13.87
27826;BMP280;15077;49.704;9.908;2024-01-30T14:22:33;99428.56;;;13.88